Back to Top

Language: 

My Weather Underground Personal Weather Station Historical Data with Graphs...

Delerius Weather Station Historical Data
Daily Summary for February 21, 2017 Units:  Both    English   Metric
« Previous Day
Next Day »
Daily Weekly Monthly Yearly Custom
  High: Low: Average:
Temperature: 54.8 °F /  12.7 °C 42.9 °F /  6.1 °C 49.7 °F /  9.8 °C
Dew Point: 51.0 °F /  10.6 °C 40.0 °F /  4.4 °C 45.8 °F /  7.7 °C
Humidity: 92 % 80 % 86 %
Wind Speed: 22.0 mph /  35.4 km/h - 9.5 mph /  15.3 km/h
Wind Gust: 30.0 mph /  48.3 km/h - -
Wind:- - West
Pressure: 29.98 in /  1015.1 hPa 29.55 in /  1000.6 hPa -
Precipitation: 0.00 in /  0 mm    
Historical Graphs
 
 
Tabular Data for February 21, 2017
Time Temperature Dew Point Pressure Wind Wind Speed Wind Gust Humidity Rainfall Rate (Hourly) solar Conditions
00:00 47.5 °F /  8.6 °C 43.2 °F /  6.2 °C 29.97 in /  1014.8 hPa West 7.0 mph /  11.3 km/h 11.0 mph /  17.7 km/h 85 % 0.00 in /  0 mm 0 W/m2
00:05 47.4 °F /  8.6 °C 43.1 °F /  6.2 °C 29.97 in /  1014.8 hPa WNW 7.0 mph /  11.3 km/h 12.0 mph /  19.3 km/h 85 % 0.00 in /  0 mm 0 W/m2
00:15 47.2 °F /  8.4 °C 42.9 °F /  6.1 °C 29.98 in /  1015.1 hPa WSW 6.0 mph /  9.7 km/h 10.0 mph /  16.1 km/h 85 % 0.00 in /  0 mm 0 W/m2
00:20 47.2 °F /  8.4 °C 42.9 °F /  6.1 °C 29.97 in /  1014.8 hPa WSW 5.0 mph /  8 km/h 5.0 mph /  8 km/h 85 % 0.00 in /  0 mm 0 W/m2
00:25 47.1 °F /  8.4 °C 42.8 °F /  6 °C 29.97 in /  1014.8 hPa WSW 6.0 mph /  9.7 km/h 7.0 mph /  11.3 km/h 85 % 0.00 in /  0 mm 0 W/m2
00:30 47.1 °F /  8.4 °C 42.8 °F /  6 °C 29.98 in /  1015.1 hPa West 5.0 mph /  8 km/h 5.0 mph /  8 km/h 85 % 0.00 in /  0 mm 0 W/m2
00:35 47.0 °F /  8.3 °C 42.7 °F /  5.9 °C 29.98 in /  1015.1 hPa West 5.0 mph /  8 km/h 6.0 mph /  9.7 km/h 85 % 0.00 in /  0 mm 0 W/m2
00:40 46.9 °F /  8.3 °C 42.6 °F /  5.9 °C 29.98 in /  1015.1 hPa West 7.0 mph /  11.3 km/h 7.0 mph /  11.3 km/h 85 % 0.00 in /  0 mm 0 W/m2
00:50 47.0 °F /  8.3 °C 42.4 °F /  5.8 °C 29.98 in /  1015.1 hPa West 8.0 mph /  12.9 km/h 8.0 mph /  12.9 km/h 84 % 0.00 in /  0 mm 0 W/m2
01:00 47.0 °F /  8.3 °C 42.4 °F /  5.8 °C 29.98 in /  1015.1 hPa WNW 6.0 mph /  9.7 km/h 9.0 mph /  14.5 km/h 84 % 0.00 in /  0 mm 0 W/m2
01:05 47.0 °F /  8.3 °C 42.4 °F /  5.8 °C 29.98 in /  1015.1 hPa West 8.0 mph /  12.9 km/h 16.0 mph /  25.7 km/h 84 % 0.00 in /  0 mm 0 W/m2
01:10 46.9 °F /  8.3 °C 42.3 °F /  5.7 °C 29.97 in /  1014.8 hPa West 7.0 mph /  11.3 km/h 16.0 mph /  25.7 km/h 84 % 0.00 in /  0 mm 0 W/m2
01:15 46.9 °F /  8.3 °C 42.3 °F /  5.7 °C 29.97 in /  1014.8 hPa West 6.0 mph /  9.7 km/h 16.0 mph /  25.7 km/h 84 % 0.00 in /  0 mm 0 W/m2
01:20 46.8 °F /  8.2 °C 42.2 °F /  5.7 °C 29.97 in /  1014.8 hPa West 6.0 mph /  9.7 km/h 6.0 mph /  9.7 km/h 84 % 0.00 in /  0 mm 0 W/m2
01:25 46.8 °F /  8.2 °C 42.5 °F /  5.8 °C 29.97 in /  1014.8 hPa West 6.0 mph /  9.7 km/h 16.0 mph /  25.7 km/h 85 % 0.00 in /  0 mm 0 W/m2
01:30 46.7 °F /  8.2 °C 42.4 °F /  5.8 °C 29.97 in /  1014.8 hPa WNW 6.0 mph /  9.7 km/h 6.0 mph /  9.7 km/h 85 % 0.00 in /  0 mm 0 W/m2
01:40 46.5 °F /  8.1 °C 42.2 °F /  5.7 °C 29.97 in /  1014.8 hPa West 5.0 mph /  8 km/h 16.0 mph /  25.7 km/h 85 % 0.00 in /  0 mm 0 W/m2
01:45 46.5 °F /  8.1 °C 42.5 °F /  5.8 °C 29.96 in /  1014.4 hPa West 7.0 mph /  11.3 km/h 16.0 mph /  25.7 km/h 86 % 0.00 in /  0 mm 0 W/m2
01:50 46.4 °F /  8 °C 42.4 °F /  5.8 °C 29.96 in /  1014.4 hPa West 8.0 mph /  12.9 km/h 8.0 mph /  12.9 km/h 86 % 0.00 in /  0 mm 0 W/m2
01:55 46.4 °F /  8 °C 42.4 °F /  5.8 °C 29.96 in /  1014.4 hPa West 7.0 mph /  11.3 km/h 9.0 mph /  14.5 km/h 86 % 0.00 in /  0 mm 0 W/m2
02:00 46.3 °F /  7.9 °C 42.6 °F /  5.9 °C 29.97 in /  1014.8 hPa West 8.0 mph /  12.9 km/h 16.0 mph /  25.7 km/h 87 % 0.00 in /  0 mm 0 W/m2
02:05 46.3 °F /  7.9 °C 42.6 °F /  5.9 °C 29.97 in /  1014.8 hPa WNW 8.0 mph /  12.9 km/h 16.0 mph /  25.7 km/h 87 % 0.00 in /  0 mm 0 W/m2
02:10 46.3 °F /  7.9 °C 42.6 °F /  5.9 °C 29.97 in /  1014.8 hPa WNW 7.0 mph /  11.3 km/h 16.0 mph /  25.7 km/h 87 % 0.00 in /  0 mm 0 W/m2
02:20 46.3 °F /  7.9 °C 42.6 °F /  5.9 °C 29.97 in /  1014.8 hPa NW 6.0 mph /  9.7 km/h 6.0 mph /  9.7 km/h 87 % 0.00 in /  0 mm 0 W/m2
02:25 46.3 °F /  7.9 °C 42.6 °F /  5.9 °C 29.97 in /  1014.8 hPa West 4.0 mph /  6.4 km/h 7.0 mph /  11.3 km/h 87 % 0.00 in /  0 mm 0 W/m2
02:30 46.3 °F /  7.9 °C 42.6 °F /  5.9 °C 29.97 in /  1014.8 hPa West 4.0 mph /  6.4 km/h 16.0 mph /  25.7 km/h 87 % 0.00 in /  0 mm 0 W/m2
02:35 46.3 °F /  7.9 °C 42.6 °F /  5.9 °C 29.97 in /  1014.8 hPa WNW 3.0 mph /  4.8 km/h 16.0 mph /  25.7 km/h 87 % 0.00 in /  0 mm 0 W/m2
02:40 46.3 °F /  7.9 °C 42.6 °F /  5.9 °C 29.97 in /  1014.8 hPa West 4.0 mph /  6.4 km/h 4.0 mph /  6.4 km/h 87 % 0.00 in /  0 mm 0 W/m2
02:45 46.3 °F /  7.9 °C 42.6 °F /  5.9 °C 29.96 in /  1014.4 hPa WNW 4.0 mph /  6.4 km/h 16.0 mph /  25.7 km/h 87 % 0.00 in /  0 mm 0 W/m2
02:50 46.3 °F /  7.9 °C 42.6 °F /  5.9 °C 29.96 in /  1014.4 hPa WNW 3.0 mph /  4.8 km/h 16.0 mph /  25.7 km/h 87 % 0.00 in /  0 mm 0 W/m2
02:55 46.3 °F /  7.9 °C 42.6 °F /  5.9 °C 29.96 in /  1014.4 hPa WNW 3.0 mph /  4.8 km/h 16.0 mph /  25.7 km/h 87 % 0.00 in /  0 mm 0 W/m2
03:05 46.2 °F /  7.9 °C 42.2 °F /  5.7 °C 29.96 in /  1014.4 hPa NW 3.0 mph /  4.8 km/h 16.0 mph /  25.7 km/h 86 % 0.00 in /  0 mm 0 W/m2
03:15 46.0 °F /  7.8 °C 42.0 °F /  5.6 °C 29.96 in /  1014.4 hPa WNW 2.0 mph /  3.2 km/h 5.0 mph /  8 km/h 86 % 0.00 in /  0 mm 0 W/m2
03:20 45.9 °F /  7.7 °C 42.2 °F /  5.7 °C 29.96 in /  1014.4 hPa WNW 3.0 mph /  4.8 km/h 16.0 mph /  25.7 km/h 87 % 0.00 in /  0 mm 0 W/m2
03:25 45.8 °F /  7.7 °C 42.2 °F /  5.7 °C 29.96 in /  1014.4 hPa WNW 4.0 mph /  6.4 km/h 16.0 mph /  25.7 km/h 87 % 0.00 in /  0 mm 0 W/m2
03:30 45.9 °F /  7.7 °C 42.2 °F /  5.7 °C 29.96 in /  1014.4 hPa WNW 5.0 mph /  8 km/h 16.0 mph /  25.7 km/h 87 % 0.00 in /  0 mm 0 W/m2
03:35 45.9 °F /  7.7 °C 42.5 °F /  5.8 °C 29.96 in /  1014.4 hPa WNW 4.0 mph /  6.4 km/h 16.0 mph /  25.7 km/h 88 % 0.00 in /  0 mm 0 W/m2
03:40 45.8 °F /  7.7 °C 42.2 °F /  5.7 °C 29.96 in /  1014.4 hPa WNW 4.0 mph /  6.4 km/h 4.0 mph /  6.4 km/h 87 % 0.00 in /  0 mm 0 W/m2
03:45 45.7 °F /  7.6 °C 42.1 °F /  5.6 °C 29.96 in /  1014.4 hPa WNW 4.0 mph /  6.4 km/h 16.0 mph /  25.7 km/h 87 % 0.00 in /  0 mm 0 W/m2
03:50 45.6 °F /  7.6 °C 42.0 °F /  5.6 °C 29.96 in /  1014.4 hPa WNW 5.0 mph /  8 km/h 5.0 mph /  8 km/h 87 % 0.00 in /  0 mm 0 W/m2
04:00 45.5 °F /  7.5 °C 42.2 °F /  5.7 °C 29.95 in /  1014.1 hPa NW 7.0 mph /  11.3 km/h 7.0 mph /  11.3 km/h 88 % 0.00 in /  0 mm 0 W/m2
04:05 45.4 °F /  7.4 °C 42.1 °F /  5.6 °C 29.95 in /  1014.1 hPa WNW 7.0 mph /  11.3 km/h 10.0 mph /  16.1 km/h 88 % 0.00 in /  0 mm 0 W/m2
04:10 45.4 °F /  7.4 °C 42.1 °F /  5.6 °C 29.95 in /  1014.1 hPa WNW 8.0 mph /  12.9 km/h 16.0 mph /  25.7 km/h 88 % 0.00 in /  0 mm 0 W/m2
04:15 45.4 °F /  7.4 °C 42.1 °F /  5.6 °C 29.95 in /  1014.1 hPa WNW 9.0 mph /  14.5 km/h 16.0 mph /  25.7 km/h 88 % 0.00 in /  0 mm 0 W/m2
04:25 45.3 °F /  7.4 °C 42.0 °F /  5.6 °C 29.94 in /  1013.8 hPa WNW 9.0 mph /  14.5 km/h 16.0 mph /  25.7 km/h 88 % 0.00 in /  0 mm 0 W/m2
04:30 45.3 °F /  7.4 °C 42.0 °F /  5.6 °C 29.95 in /  1014.1 hPa WNW 7.0 mph /  11.3 km/h 7.0 mph /  11.3 km/h 88 % 0.00 in /  0 mm 0 W/m2
04:40 45.1 °F /  7.3 °C 41.8 °F /  5.4 °C 29.96 in /  1014.4 hPa NW 5.0 mph /  8 km/h 5.0 mph /  8 km/h 88 % 0.00 in /  0 mm 0 W/m2
04:45 45.0 °F /  7.2 °C 41.7 °F /  5.4 °C 29.95 in /  1014.1 hPa NW 5.0 mph /  8 km/h 16.0 mph /  25.7 km/h 88 % 0.00 in /  0 mm 0 W/m2
04:50 44.9 °F /  7.2 °C 41.6 °F /  5.3 °C 29.95 in /  1014.1 hPa WNW 5.0 mph /  8 km/h 16.0 mph /  25.7 km/h 88 % 0.00 in /  0 mm 0 W/m2
04:55 44.9 °F /  7.2 °C 41.6 °F /  5.3 °C 29.96 in /  1014.4 hPa WNW 6.0 mph /  9.7 km/h 16.0 mph /  25.7 km/h 88 % 0.00 in /  0 mm 0 W/m2
05:00 44.8 °F /  7.1 °C 41.5 °F /  5.3 °C 29.96 in /  1014.4 hPa WNW 7.0 mph /  11.3 km/h 16.0 mph /  25.7 km/h 88 % 0.00 in /  0 mm 0 W/m2
05:05 44.8 °F /  7.1 °C 41.5 °F /  5.3 °C 29.96 in /  1014.4 hPa WNW 8.0 mph /  12.9 km/h 16.0 mph /  25.7 km/h 88 % 0.00 in /  0 mm 0 W/m2
05:10 44.8 °F /  7.1 °C 41.8 °F /  5.4 °C 29.96 in /  1014.4 hPa WNW 8.0 mph /  12.9 km/h 16.0 mph /  25.7 km/h 89 % 0.00 in /  0 mm 0 W/m2
05:15 44.9 °F /  7.2 °C 41.9 °F /  5.5 °C 29.95 in /  1014.1 hPa West 9.0 mph /  14.5 km/h 16.0 mph /  25.7 km/h 89 % 0.00 in /  0 mm 0 W/m2
05:25 44.7 °F /  7.1 °C 41.7 °F /  5.4 °C 29.94 in /  1013.8 hPa West 11.0 mph /  17.7 km/h 16.0 mph /  25.7 km/h 89 % 0.00 in /  0 mm 0 W/m2
05:30 44.7 °F /  7.1 °C 41.7 °F /  5.4 °C 29.94 in /  1013.8 hPa West 11.0 mph /  17.7 km/h 11.0 mph /  17.7 km/h 89 % 0.00 in /  0 mm 0 W/m2
05:35 44.8 °F /  7.1 °C 41.8 °F /  5.4 °C 29.95 in /  1014.1 hPa West 12.0 mph /  19.3 km/h 14.0 mph /  22.5 km/h 89 % 0.00 in /  0 mm 0 W/m2
05:40 44.8 °F /  7.1 °C 41.5 °F /  5.3 °C 29.95 in /  1014.1 hPa West 11.0 mph /  17.7 km/h 16.0 mph /  25.7 km/h 88 % 0.00 in /  0 mm 0 W/m2
05:45 44.8 °F /  7.1 °C 41.5 °F /  5.3 °C 29.95 in /  1014.1 hPa WNW 10.0 mph /  16.1 km/h 16.0 mph /  25.7 km/h 88 % 0.00 in /  0 mm 0 W/m2
05:50 44.8 °F /  7.1 °C 41.5 °F /  5.3 °C 29.96 in /  1014.4 hPa WNW 11.0 mph /  17.7 km/h 16.0 mph /  25.7 km/h 88 % 0.00 in /  0 mm 0 W/m2
05:55 44.8 °F /  7.1 °C 41.2 °F /  5.1 °C 29.96 in /  1014.4 hPa WNW 11.0 mph /  17.7 km/h 16.0 mph /  25.7 km/h 87 % 0.00 in /  0 mm 0 W/m2
06:05 44.7 °F /  7.1 °C 41.1 °F /  5.1 °C 29.96 in /  1014.4 hPa West 10.0 mph /  16.1 km/h 16.0 mph /  25.7 km/h 87 % 0.00 in /  0 mm 0 W/m2
06:15 44.7 °F /  7.1 °C 41.1 °F /  5.1 °C 29.95 in /  1014.1 hPa West 12.0 mph /  19.3 km/h 12.0 mph /  19.3 km/h 87 % 0.00 in /  0 mm 0 W/m2
06:20 44.6 °F /  7 °C 41.0 °F /  5 °C 29.95 in /  1014.1 hPa West 11.0 mph /  17.7 km/h 16.0 mph /  25.7 km/h 87 % 0.00 in /  0 mm 0 W/m2
06:25 44.6 °F /  7 °C 41.0 °F /  5 °C 29.95 in /  1014.1 hPa West 11.0 mph /  17.7 km/h 16.0 mph /  25.7 km/h 87 % 0.00 in /  0 mm 0 W/m2
06:30 44.4 °F /  6.9 °C 40.8 °F /  4.9 °C 29.95 in /  1014.1 hPa West 10.0 mph /  16.1 km/h 10.0 mph /  16.1 km/h 87 % 0.00 in /  0 mm 0 W/m2
06:35 44.3 °F /  6.8 °C 40.7 °F /  4.8 °C 29.96 in /  1014.4 hPa WNW 9.0 mph /  14.5 km/h 16.0 mph /  25.7 km/h 87 % 0.00 in /  0 mm 0 W/m2
06:40 44.2 °F /  6.8 °C 40.6 °F /  4.8 °C 29.96 in /  1014.4 hPa West 8.0 mph /  12.9 km/h 8.0 mph /  12.9 km/h 87 % 0.00 in /  0 mm 0 W/m2
06:45 44.1 °F /  6.7 °C 40.8 °F /  4.9 °C 29.96 in /  1014.4 hPa WNW 6.0 mph /  9.7 km/h 16.0 mph /  25.7 km/h 88 % 0.00 in /  0 mm 0 W/m2
06:50 43.9 °F /  6.6 °C 40.6 °F /  4.8 °C 29.96 in /  1014.4 hPa West 6.0 mph /  9.7 km/h 6.0 mph /  9.7 km/h 88 % 0.00 in /  0 mm 0 W/m2
07:00 43.7 °F /  6.5 °C 40.4 °F /  4.7 °C 29.97 in /  1014.8 hPa NW 5.0 mph /  8 km/h 16.0 mph /  25.7 km/h 88 % 0.00 in /  0 mm 0 W/m2
07:05 43.6 °F /  6.4 °C 40.3 °F /  4.6 °C 29.97 in /  1014.8 hPa WNW 4.0 mph /  6.4 km/h 16.0 mph /  25.7 km/h 88 % 0.00 in /  0 mm 0 W/m2
07:15 43.4 °F /  6.3 °C 40.4 °F /  4.7 °C 29.97 in /  1014.8 hPa WNW 4.0 mph /  6.4 km/h 16.0 mph /  25.7 km/h 89 % 0.00 in /  0 mm 5 W/m2
07:20 43.2 °F /  6.2 °C 40.2 °F /  4.6 °C 29.97 in /  1014.8 hPa WNW 6.0 mph /  9.7 km/h 16.0 mph /  25.7 km/h 89 % 0.00 in /  0 mm 9 W/m2
07:25 43.1 °F /  6.2 °C 40.1 °F /  4.5 °C 29.97 in /  1014.8 hPa WNW 7.0 mph /  11.3 km/h 16.0 mph /  25.7 km/h 89 % 0.00 in /  0 mm 14 W/m2
07:30 43.0 °F /  6.1 °C 40.0 °F /  4.4 °C 29.97 in /  1014.8 hPa WNW 7.0 mph /  11.3 km/h 7.0 mph /  11.3 km/h 89 % 0.00 in /  0 mm 18 W/m2
07:35 42.9 °F /  6.1 °C 40.2 °F /  4.6 °C 29.97 in /  1014.8 hPa WNW 6.0 mph /  9.7 km/h 16.0 mph /  25.7 km/h 90 % 0.00 in /  0 mm 23 W/m2
07:45 42.9 °F /  6.1 °C 40.2 °F /  4.6 °C 29.97 in /  1014.8 hPa WNW 5.0 mph /  8 km/h 16.0 mph /  25.7 km/h 90 % 0.00 in /  0 mm 37 W/m2
07:50 42.9 °F /  6.1 °C 40.2 °F /  4.6 °C 29.97 in /  1014.8 hPa NW 3.0 mph /  4.8 km/h 3.0 mph /  4.8 km/h 90 % 0.00 in /  0 mm 44 W/m2
07:55 42.9 °F /  6.1 °C 40.2 °F /  4.6 °C 29.97 in /  1014.8 hPa NW 1.0 mph /  1.6 km/h 16.0 mph /  25.7 km/h 90 % 0.00 in /  0 mm 60 W/m2
08:00 43.0 °F /  6.1 °C 40.3 °F /  4.6 °C 29.97 in /  1014.8 hPa Calm   16.0 mph /  25.7 km/h 90 % 0.00 in /  0 mm 58 W/m2
08:05 43.1 °F /  6.2 °C 40.4 °F /  4.7 °C 29.96 in /  1014.4 hPa Calm   16.0 mph /  25.7 km/h 90 % 0.00 in /  0 mm 67 W/m2
08:10 43.3 °F /  6.3 °C 40.6 °F /  4.8 °C 29.97 in /  1014.8 hPa Calm   16.0 mph /  25.7 km/h 90 % 0.00 in /  0 mm 70 W/m2
08:15 43.4 °F /  6.3 °C 40.7 °F /  4.8 °C 29.97 in /  1014.8 hPa Calm   16.0 mph /  25.7 km/h 90 % 0.00 in /  0 mm 84 W/m2
08:25 43.8 °F /  6.6 °C 41.1 °F /  5.1 °C 29.97 in /  1014.8 hPa Calm   16.0 mph /  25.7 km/h 90 % 0.00 in /  0 mm 83 W/m2
08:35 44.0 °F /  6.7 °C 41.0 °F /  5 °C 29.97 in /  1014.8 hPa South 1.0 mph /  1.6 km/h 16.0 mph /  25.7 km/h 89 % 0.00 in /  0 mm 105 W/m2
08:40 44.2 °F /  6.8 °C 41.2 °F /  5.1 °C 29.97 in /  1014.8 hPa SW 1.0 mph /  1.6 km/h 16.0 mph /  25.7 km/h 89 % 0.00 in /  0 mm 107 W/m2
08:45 44.4 °F /  6.9 °C 41.4 °F /  5.2 °C 29.97 in /  1014.8 hPa WSW 3.0 mph /  4.8 km/h 16.0 mph /  25.7 km/h 89 % 0.00 in /  0 mm 155 W/m2
08:50 44.8 °F /  7.1 °C 41.8 °F /  5.4 °C 29.97 in /  1014.8 hPa West 5.0 mph /  8 km/h 5.0 mph /  8 km/h 89 % 0.00 in /  0 mm 142 W/m2
09:00 45.3 °F /  7.4 °C 42.0 °F /  5.6 °C 29.97 in /  1014.8 hPa West 4.0 mph /  6.4 km/h 16.0 mph /  25.7 km/h 88 % 0.00 in /  0 mm 127 W/m2
09:05 45.5 °F /  7.5 °C 42.2 °F /  5.7 °C 29.97 in /  1014.8 hPa West 4.0 mph /  6.4 km/h 16.0 mph /  25.7 km/h 88 % 0.00 in /  0 mm 167 W/m2
09:15 46.0 °F /  7.8 °C 42.3 °F /  5.7 °C 29.97 in /  1014.8 hPa WNW 5.0 mph /  8 km/h 16.0 mph /  25.7 km/h 87 % 0.00 in /  0 mm 192 W/m2
09:20 46.3 °F /  7.9 °C 42.6 °F /  5.9 °C 29.96 in /  1014.4 hPa WSW 8.0 mph /  12.9 km/h 8.0 mph /  12.9 km/h 87 % 0.00 in /  0 mm 213 W/m2
09:25 46.6 °F /  8.1 °C 42.6 °F /  5.9 °C 29.96 in /  1014.4 hPa WNW 8.0 mph /  12.9 km/h 16.0 mph /  25.7 km/h 86 % 0.00 in /  0 mm 262 W/m2
09:35 47.3 °F /  8.5 °C 43.0 °F /  6.1 °C 29.96 in /  1014.4 hPa West 9.0 mph /  14.5 km/h 16.0 mph /  25.7 km/h 85 % 0.00 in /  0 mm 258 W/m2
09:40 47.5 °F /  8.6 °C 42.9 °F /  6.1 °C 29.96 in /  1014.4 hPa West 10.0 mph /  16.1 km/h 10.0 mph /  16.1 km/h 84 % 0.00 in /  0 mm 269 W/m2
09:45 47.7 °F /  8.7 °C 43.1 °F /  6.2 °C 29.96 in /  1014.4 hPa West 10.0 mph /  16.1 km/h 16.0 mph /  25.7 km/h 84 % 0.00 in /  0 mm 258 W/m2
09:50 48.0 °F /  8.9 °C 43.4 °F /  6.3 °C 29.95 in /  1014.1 hPa WNW 10.0 mph /  16.1 km/h 16.0 mph /  25.7 km/h 84 % 0.00 in /  0 mm 306 W/m2
10:00 48.6 °F /  9.2 °C 43.7 °F /  6.5 °C 29.95 in /  1014.1 hPa West 8.0 mph /  12.9 km/h 8.0 mph /  12.9 km/h 83 % 0.00 in /  0 mm 253 W/m2
10:05 48.7 °F /  9.3 °C 43.5 °F /  6.4 °C 29.95 in /  1014.1 hPa WNW 9.0 mph /  14.5 km/h 9.0 mph /  14.5 km/h 82 % 0.00 in /  0 mm 232 W/m2
10:10 48.8 °F /  9.3 °C 43.5 °F /  6.4 °C 29.95 in /  1014.1 hPa WSW 9.0 mph /  14.5 km/h 9.0 mph /  14.5 km/h 82 % 0.00 in /  0 mm 216 W/m2
10:15 48.8 °F /  9.3 °C 43.2 °F /  6.2 °C 29.95 in /  1014.1 hPa WNW 10.0 mph /  16.1 km/h 16.0 mph /  25.7 km/h 81 % 0.00 in /  0 mm 237 W/m2
10:20 48.8 °F /  9.3 °C 43.2 °F /  6.2 °C 29.95 in /  1014.1 hPa WSW 12.0 mph /  19.3 km/h 12.0 mph /  19.3 km/h 81 % 0.00 in /  0 mm 209 W/m2
10:25 48.8 °F /  9.3 °C 43.2 °F /  6.2 °C 29.95 in /  1014.1 hPa WNW 12.0 mph /  19.3 km/h 16.0 mph /  25.7 km/h 81 % 0.00 in /  0 mm 262 W/m2
10:30 48.8 °F /  9.3 °C 43.2 °F /  6.2 °C 29.95 in /  1014.1 hPa West 10.0 mph /  16.1 km/h 10.0 mph /  16.1 km/h 81 % 0.00 in /  0 mm 227 W/m2
10:35 48.9 °F /  9.4 °C 43.3 °F /  6.3 °C 29.95 in /  1014.1 hPa West 9.0 mph /  14.5 km/h 11.0 mph /  17.7 km/h 81 % 0.00 in /  0 mm 236 W/m2
10:40 49.1 °F /  9.5 °C 43.8 °F /  6.6 °C 29.95 in /  1014.1 hPa West 9.0 mph /  14.5 km/h 16.0 mph /  25.7 km/h 82 % 0.00 in /  0 mm 267 W/m2
10:50 49.3 °F /  9.6 °C 43.7 °F /  6.5 °C 29.94 in /  1013.8 hPa West 9.0 mph /  14.5 km/h 16.0 mph /  25.7 km/h 81 % 0.00 in /  0 mm 246 W/m2
10:55 49.5 °F /  9.7 °C 43.9 °F /  6.6 °C 29.94 in /  1013.8 hPa WSW 9.0 mph /  14.5 km/h 16.0 mph /  25.7 km/h 81 % 0.00 in /  0 mm 320 W/m2
11:00 49.7 °F /  9.8 °C 44.1 °F /  6.7 °C 29.95 in /  1014.1 hPa NW 10.0 mph /  16.1 km/h 10.0 mph /  16.1 km/h 81 % 0.00 in /  0 mm 313 W/m2
11:05 50.0 °F /  10 °C 44.4 °F /  6.9 °C 29.94 in /  1013.8 hPa WSW 10.0 mph /  16.1 km/h 13.0 mph /  20.9 km/h 81 % 0.00 in /  0 mm 299 W/m2
11:10 50.2 °F /  10.1 °C 44.6 °F /  7 °C 29.94 in /  1013.8 hPa WNW 10.0 mph /  16.1 km/h 16.0 mph /  25.7 km/h 81 % 0.00 in /  0 mm 223 W/m2
11:15 50.4 °F /  10.2 °C 44.8 °F /  7.1 °C 29.94 in /  1013.8 hPa West 8.0 mph /  12.9 km/h 16.0 mph /  25.7 km/h 81 % 0.00 in /  0 mm 221 W/m2
11:20 50.5 °F /  10.3 °C 44.9 °F /  7.2 °C 29.94 in /  1013.8 hPa NW 8.0 mph /  12.9 km/h 8.0 mph /  12.9 km/h 81 % 0.00 in /  0 mm 306 W/m2
11:30 50.9 °F /  10.5 °C 44.9 °F /  7.2 °C 29.93 in /  1013.4 hPa WSW 8.0 mph /  12.9 km/h 8.0 mph /  12.9 km/h 80 % 0.00 in /  0 mm 188 W/m2
11:35 51.0 °F /  10.6 °C 45.4 °F /  7.4 °C 29.93 in /  1013.4 hPa West 7.0 mph /  11.3 km/h 11.0 mph /  17.7 km/h 81 % 0.00 in /  0 mm 172 W/m2
11:40 51.2 °F /  10.7 °C 45.2 °F /  7.3 °C 29.93 in /  1013.4 hPa West 7.0 mph /  11.3 km/h 16.0 mph /  25.7 km/h 80 % 0.00 in /  0 mm 188 W/m2
11:50 51.3 °F /  10.7 °C 45.7 °F /  7.6 °C 29.92 in /  1013.1 hPa SW 10.0 mph /  16.1 km/h 10.0 mph /  16.1 km/h 81 % 0.00 in /  0 mm 214 W/m2
11:55 51.4 °F /  10.8 °C 45.8 °F /  7.7 °C 29.93 in /  1013.4 hPa SW 7.0 mph /  11.3 km/h 16.0 mph /  25.7 km/h 81 % 0.00 in /  0 mm 163 W/m2
12:00 51.4 °F /  10.8 °C 45.8 °F /  7.7 °C 29.93 in /  1013.4 hPa SW 7.0 mph /  11.3 km/h 7.0 mph /  11.3 km/h 81 % 0.00 in /  0 mm 162 W/m2
12:05 51.5 °F /  10.8 °C 45.9 °F /  7.7 °C 29.92 in /  1013.1 hPa West 7.0 mph /  11.3 km/h 16.0 mph /  25.7 km/h 81 % 0.00 in /  0 mm 169 W/m2
12:15 51.6 °F /  10.9 °C 46.0 °F /  7.8 °C 29.91 in /  1012.8 hPa SW 7.0 mph /  11.3 km/h 16.0 mph /  25.7 km/h 81 % 0.00 in /  0 mm 163 W/m2
12:20 51.5 °F /  10.8 °C 45.9 °F /  7.7 °C 29.91 in /  1012.8 hPa WSW 7.0 mph /  11.3 km/h 7.0 mph /  11.3 km/h 81 % 0.00 in /  0 mm 149 W/m2
12:25 51.4 °F /  10.8 °C 45.8 °F /  7.7 °C 29.90 in /  1012.4 hPa SW 8.0 mph /  12.9 km/h 8.0 mph /  12.9 km/h 81 % 0.00 in /  0 mm 137 W/m2
12:30 51.3 °F /  10.7 °C 45.7 °F /  7.6 °C 29.90 in /  1012.4 hPa SW 9.0 mph /  14.5 km/h 16.0 mph /  25.7 km/h 81 % 0.00 in /  0 mm 120 W/m2
12:35 51.3 °F /  10.7 °C 46.0 °F /  7.8 °C 29.89 in /  1012.1 hPa SSW 8.0 mph /  12.9 km/h 16.0 mph /  25.7 km/h 82 % 0.00 in /  0 mm 123 W/m2
12:40 51.3 °F /  10.7 °C 46.0 °F /  7.8 °C 29.89 in /  1012.1 hPa SSW 7.0 mph /  11.3 km/h 7.0 mph /  11.3 km/h 82 % 0.00 in /  0 mm 116 W/m2
12:45 51.4 °F /  10.8 °C 46.4 °F /  8 °C 29.88 in /  1011.7 hPa SW 6.0 mph /  9.7 km/h 16.0 mph /  25.7 km/h 83 % 0.00 in /  0 mm 104 W/m2
12:55 51.5 °F /  10.8 °C 46.5 °F /  8.1 °C 29.88 in /  1011.7 hPa SW 7.0 mph /  11.3 km/h 16.0 mph /  25.7 km/h 83 % 0.00 in /  0 mm 98 W/m2
13:05 51.6 °F /  10.9 °C 46.6 °F /  8.1 °C 29.87 in /  1011.4 hPa WSW 8.0 mph /  12.9 km/h 16.0 mph /  25.7 km/h 83 % 0.00 in /  0 mm 88 W/m2
13:10 51.7 °F /  10.9 °C 46.7 °F /  8.2 °C 29.87 in /  1011.4 hPa SW 10.0 mph /  16.1 km/h 10.0 mph /  16.1 km/h 83 % 0.00 in /  0 mm 86 W/m2
13:15 51.8 °F /  11 °C 46.8 °F /  8.2 °C 29.87 in /  1011.4 hPa West 9.0 mph /  14.5 km/h 16.0 mph /  25.7 km/h 83 % 0.00 in /  0 mm 81 W/m2
13:20 51.8 °F /  11 °C 46.8 °F /  8.2 °C 29.86 in /  1011.1 hPa WSW 8.0 mph /  12.9 km/h 16.0 mph /  25.7 km/h 83 % 0.00 in /  0 mm 84 W/m2
13:25 51.8 °F /  11 °C 47.1 °F /  8.4 °C 29.86 in /  1011.1 hPa WSW 9.0 mph /  14.5 km/h 16.0 mph /  25.7 km/h 84 % 0.00 in /  0 mm 86 W/m2
13:30 51.8 °F /  11 °C 47.1 °F /  8.4 °C 29.85 in /  1010.7 hPa SSW 10.0 mph /  16.1 km/h 10.0 mph /  16.1 km/h 84 % 0.00 in /  0 mm 83 W/m2
13:35 51.8 °F /  11 °C 47.4 °F /  8.6 °C 29.85 in /  1010.7 hPa WSW 9.0 mph /  14.5 km/h 11.0 mph /  17.7 km/h 85 % 0.00 in /  0 mm 74 W/m2
13:40 51.8 °F /  11 °C 47.4 °F /  8.6 °C 29.84 in /  1010.4 hPa SW 10.0 mph /  16.1 km/h 16.0 mph /  25.7 km/h 85 % 0.00 in /  0 mm 77 W/m2
13:50 51.9 °F /  11.1 °C 47.8 °F /  8.8 °C 29.83 in /  1010 hPa WSW 10.0 mph /  16.1 km/h 10.0 mph /  16.1 km/h 86 % 0.00 in /  0 mm 91 W/m2
13:55 52.0 °F /  11.1 °C 47.9 °F /  8.8 °C 29.83 in /  1010 hPa SW 10.0 mph /  16.1 km/h 16.0 mph /  25.7 km/h 86 % 0.00 in /  0 mm 105 W/m2
14:00 52.1 °F /  11.2 °C 48.3 °F /  9.1 °C 29.83 in /  1010 hPa SW 11.0 mph /  17.7 km/h 11.0 mph /  17.7 km/h 87 % 0.00 in /  0 mm 141 W/m2
14:10 52.6 °F /  11.4 °C 48.8 °F /  9.3 °C 29.82 in /  1009.7 hPa SW 10.0 mph /  16.1 km/h 10.0 mph /  16.1 km/h 87 % 0.00 in /  0 mm 142 W/m2
14:15 52.9 °F /  11.6 °C 48.8 °F /  9.3 °C 29.82 in /  1009.7 hPa WSW 9.0 mph /  14.5 km/h 16.0 mph /  25.7 km/h 86 % 0.00 in /  0 mm 127 W/m2
14:20 53.1 °F /  11.7 °C 49.0 °F /  9.4 °C 29.82 in /  1009.7 hPa WSW 9.0 mph /  14.5 km/h 16.0 mph /  25.7 km/h 86 % 0.00 in /  0 mm 128 W/m2
14:30 53.6 °F /  12 °C 49.5 °F /  9.7 °C 29.81 in /  1009.4 hPa SSW 9.0 mph /  14.5 km/h 16.0 mph /  25.7 km/h 86 % 0.00 in /  0 mm 141 W/m2
14:35 54.0 °F /  12.2 °C 49.6 °F /  9.8 °C 29.81 in /  1009.4 hPa SW 10.0 mph /  16.1 km/h 16.0 mph /  25.7 km/h 85 % 0.00 in /  0 mm 160 W/m2
14:40 54.3 °F /  12.4 °C 49.9 °F /  9.9 °C 29.81 in /  1009.4 hPa SW 10.0 mph /  16.1 km/h 10.0 mph /  16.1 km/h 85 % 0.00 in /  0 mm 141 W/m2
14:45 54.6 °F /  12.6 °C 49.9 °F /  9.9 °C 29.81 in /  1009.4 hPa West 11.0 mph /  17.7 km/h 11.0 mph /  17.7 km/h 84 % 0.00 in /  0 mm 127 W/m2
14:50 54.7 °F /  12.6 °C 49.6 °F /  9.8 °C 29.81 in /  1009.4 hPa WSW 13.0 mph /  20.9 km/h 13.0 mph /  20.9 km/h 83 % 0.00 in /  0 mm 109 W/m2
14:55 54.8 °F /  12.7 °C 49.7 °F /  9.8 °C 29.81 in /  1009.4 hPa SW 12.0 mph /  19.3 km/h 16.0 mph /  25.7 km/h 83 % 0.00 in /  0 mm 113 W/m2
15:00 54.8 °F /  12.7 °C 50.1 °F /  10.1 °C 29.81 in /  1009.4 hPa WSW 11.0 mph /  17.7 km/h 16.0 mph /  25.7 km/h 84 % 0.00 in /  0 mm 128 W/m2
15:10 54.6 °F /  12.6 °C 50.2 °F /  10.1 °C 29.80 in /  1009 hPa WSW 12.0 mph /  19.3 km/h 16.0 mph /  25.7 km/h 85 % 0.00 in /  0 mm 202 W/m2
15:15 54.5 °F /  12.5 °C 50.4 °F /  10.2 °C 29.79 in /  1008.7 hPa SW 12.0 mph /  19.3 km/h 16.0 mph /  25.7 km/h 86 % 0.00 in /  0 mm 105 W/m2
15:20 54.4 °F /  12.4 °C 50.3 °F /  10.2 °C 29.78 in /  1008.4 hPa SW 10.0 mph /  16.1 km/h 16.0 mph /  25.7 km/h 86 % 0.00 in /  0 mm 156 W/m2
15:25 54.4 °F /  12.4 °C 50.6 °F /  10.3 °C 29.78 in /  1008.4 hPa SW 9.0 mph /  14.5 km/h 16.0 mph /  25.7 km/h 87 % 0.00 in /  0 mm 181 W/m2
15:30 54.4 °F /  12.4 °C 50.6 °F /  10.3 °C 29.78 in /  1008.4 hPa SW 11.0 mph /  17.7 km/h 11.0 mph /  17.7 km/h 87 % 0.00 in /  0 mm 171 W/m2
15:35 54.5 °F /  12.5 °C 51.0 °F /  10.6 °C 29.78 in /  1008.4 hPa WSW 10.0 mph /  16.1 km/h 16.0 mph /  25.7 km/h 88 % 0.00 in /  0 mm 167 W/m2
15:40 54.3 °F /  12.4 °C 50.8 °F /  10.4 °C 29.77 in /  1008 hPa SW 8.0 mph /  12.9 km/h 16.0 mph /  25.7 km/h 88 % 0.00 in /  0 mm 111 W/m2
15:50 54.2 °F /  12.3 °C 50.7 °F /  10.4 °C 29.77 in /  1008 hPa SW 8.0 mph /  12.9 km/h 16.0 mph /  25.7 km/h 88 % 0.00 in /  0 mm 146 W/m2
16:00 54.2 °F /  12.3 °C 50.7 °F /  10.4 °C 29.76 in /  1007.7 hPa SW 8.0 mph /  12.9 km/h 8.0 mph /  12.9 km/h 88 % 0.00 in /  0 mm 77 W/m2
16:05 54.1 °F /  12.3 °C 50.6 °F /  10.3 °C 29.76 in /  1007.7 hPa SW 8.0 mph /  12.9 km/h 10.0 mph /  16.1 km/h 88 % 0.00 in /  0 mm 69 W/m2
16:10 54.0 °F /  12.2 °C 50.8 °F /  10.4 °C 29.75 in /  1007.3 hPa SW 8.0 mph /  12.9 km/h 16.0 mph /  25.7 km/h 89 % 0.00 in /  0 mm 81 W/m2
16:15 54.0 °F /  12.2 °C 50.8 °F /  10.4 °C 29.75 in /  1007.3 hPa WSW 7.0 mph /  11.3 km/h 16.0 mph /  25.7 km/h 89 % 0.00 in /  0 mm 70 W/m2
16:20 53.9 °F /  12.2 °C 50.7 °F /  10.4 °C 29.75 in /  1007.3 hPa SSW 8.0 mph /  12.9 km/h 16.0 mph /  25.7 km/h 89 % 0.00 in /  0 mm 60 W/m2
16:25 53.7 °F /  12.1 °C 50.5 °F /  10.3 °C 29.75 in /  1007.3 hPa SW 9.0 mph /  14.5 km/h 16.0 mph /  25.7 km/h 89 % 0.00 in /  0 mm 56 W/m2
16:30 53.6 °F /  12 °C 50.4 °F /  10.2 °C 29.74 in /  1007 hPa SW 9.0 mph /  14.5 km/h 16.0 mph /  25.7 km/h 89 % 0.00 in /  0 mm 51 W/m2
16:40 53.5 °F /  11.9 °C 50.6 °F /  10.3 °C 29.74 in /  1007 hPa SW 9.0 mph /  14.5 km/h 9.0 mph /  14.5 km/h 90 % 0.00 in /  0 mm 33 W/m2
16:45 53.5 °F /  11.9 °C 50.6 °F /  10.3 °C 29.74 in /  1007 hPa WSW 9.0 mph /  14.5 km/h 16.0 mph /  25.7 km/h 90 % 0.00 in /  0 mm 26 W/m2
16:50 53.5 °F /  11.9 °C 50.6 °F /  10.3 °C 29.74 in /  1007 hPa SSW 8.0 mph /  12.9 km/h 8.0 mph /  12.9 km/h 90 % 0.00 in /  0 mm 30 W/m2
16:55 53.4 °F /  11.9 °C 50.5 °F /  10.3 °C 29.74 in /  1007 hPa SW 8.0 mph /  12.9 km/h 11.0 mph /  17.7 km/h 90 % 0.00 in /  0 mm 18 W/m2
17:00 53.4 °F /  11.9 °C 50.5 °F /  10.3 °C 29.74 in /  1007 hPa WSW 10.0 mph /  16.1 km/h 16.0 mph /  25.7 km/h 90 % 0.00 in /  0 mm 11 W/m2
17:05 53.3 °F /  11.8 °C 50.7 °F /  10.4 °C 29.74 in /  1007 hPa WSW 12.0 mph /  19.3 km/h 16.0 mph /  25.7 km/h 91 % 0.00 in /  0 mm 5 W/m2
17:10 53.2 °F /  11.8 °C 50.9 °F /  10.5 °C 29.74 in /  1007 hPa WSW 12.0 mph /  19.3 km/h 16.0 mph /  25.7 km/h 92 % 0.00 in /  0 mm 5 W/m2
17:15 53.1 °F /  11.7 °C 50.8 °F /  10.4 °C 29.73 in /  1006.7 hPa West 10.0 mph /  16.1 km/h 16.0 mph /  25.7 km/h 92 % 0.00 in /  0 mm 0 W/m2
17:25 53.1 °F /  11.7 °C 50.8 °F /  10.4 °C 29.73 in /  1006.7 hPa WSW 12.0 mph /  19.3 km/h 18.0 mph /  29 km/h 92 % 0.00 in /  0 mm 0 W/m2
17:30 53.3 °F /  11.8 °C 51.0 °F /  10.6 °C 29.73 in /  1006.7 hPa WNW 12.0 mph /  19.3 km/h 12.0 mph /  19.3 km/h 92 % 0.00 in /  0 mm 0 W/m2
17:35 53.5 °F /  11.9 °C 50.9 °F /  10.5 °C 29.72 in /  1006.3 hPa West 12.0 mph /  19.3 km/h 16.0 mph /  25.7 km/h 91 % 0.00 in /  0 mm 0 W/m2
17:40 53.7 °F /  12.1 °C 50.8 °F /  10.4 °C 29.72 in /  1006.3 hPa WSW 12.0 mph /  19.3 km/h 24.0 mph /  38.6 km/h 90 % 0.00 in /  0 mm 0 W/m2
17:45 53.8 °F /  12.1 °C 50.6 °F /  10.3 °C 29.72 in /  1006.3 hPa SW 13.0 mph /  20.9 km/h 24.0 mph /  38.6 km/h 89 % 0.00 in /  0 mm 0 W/m2
17:50 53.9 °F /  12.2 °C 50.4 °F /  10.2 °C 29.71 in /  1006 hPa West 14.0 mph /  22.5 km/h 14.0 mph /  22.5 km/h 88 % 0.00 in /  0 mm 0 W/m2
17:55 53.9 °F /  12.2 °C 50.4 °F /  10.2 °C 29.71 in /  1006 hPa WSW 13.0 mph /  20.9 km/h 25.0 mph /  40.2 km/h 88 % 0.00 in /  0 mm 0 W/m2
18:05 54.0 °F /  12.2 °C 50.2 °F /  10.1 °C 29.70 in /  1005.6 hPa WSW 14.0 mph /  22.5 km/h 22.0 mph /  35.4 km/h 87 % 0.00 in /  0 mm 0 W/m2
18:10 54.0 °F /  12.2 °C 50.2 °F /  10.1 °C 29.70 in /  1005.6 hPa West 15.0 mph /  24.1 km/h 24.0 mph /  38.6 km/h 87 % 0.00 in /  0 mm 0 W/m2
18:15 54.0 °F /  12.2 °C 50.2 °F /  10.1 °C 29.70 in /  1005.6 hPa WSW 17.0 mph /  27.4 km/h 24.0 mph /  38.6 km/h 87 % 0.00 in /  0 mm 0 W/m2
18:20 53.9 °F /  12.2 °C 50.1 °F /  10.1 °C 29.70 in /  1005.6 hPa WSW 17.0 mph /  27.4 km/h 17.0 mph /  27.4 km/h 87 % 0.00 in /  0 mm 0 W/m2
18:25 53.7 °F /  12.1 °C 49.9 °F /  9.9 °C 29.69 in /  1005.3 hPa SW 15.0 mph /  24.1 km/h 19.0 mph /  30.6 km/h 87 % 0.00 in /  0 mm 0 W/m2
18:30 53.6 °F /  12 °C 49.8 °F /  9.9 °C 29.70 in /  1005.6 hPa WSW 17.0 mph /  27.4 km/h 21.0 mph /  33.8 km/h 87 % 0.00 in /  0 mm 0 W/m2
18:35 53.5 °F /  11.9 °C 50.0 °F /  10 °C 29.70 in /  1005.6 hPa West 17.0 mph /  27.4 km/h 21.0 mph /  33.8 km/h 88 % 0.00 in /  0 mm 0 W/m2
18:40 53.3 °F /  11.8 °C 50.1 °F /  10.1 °C 29.69 in /  1005.3 hPa West 16.0 mph /  25.7 km/h 16.0 mph /  25.7 km/h 89 % 0.00 in /  0 mm 0 W/m2
18:45 53.1 °F /  11.7 °C 49.9 °F /  9.9 °C 29.69 in /  1005.3 hPa SW 15.0 mph /  24.1 km/h 16.0 mph /  25.7 km/h 89 % 0.00 in /  0 mm 0 W/m2
18:55 53.2 °F /  11.8 °C 50.0 °F /  10 °C 29.68 in /  1005 hPa SW 15.0 mph /  24.1 km/h 16.0 mph /  25.7 km/h 89 % 0.00 in /  0 mm 0 W/m2
19:00 53.3 °F /  11.8 °C 49.8 °F /  9.9 °C 29.68 in /  1005 hPa WSW 14.0 mph /  22.5 km/h 14.0 mph /  22.5 km/h 88 % 0.00 in /  0 mm 0 W/m2
19:05 53.4 °F /  11.9 °C 49.9 °F /  9.9 °C 29.68 in /  1005 hPa West 14.0 mph /  22.5 km/h 16.0 mph /  25.7 km/h 88 % 0.00 in /  0 mm 0 W/m2
19:10 53.7 °F /  12.1 °C 49.9 °F /  9.9 °C 29.68 in /  1005 hPa WSW 13.0 mph /  20.9 km/h 20.0 mph /  32.2 km/h 87 % 0.00 in /  0 mm 0 W/m2
19:15 53.8 °F /  12.1 °C 49.7 °F /  9.8 °C 29.68 in /  1005 hPa SW 13.0 mph /  20.9 km/h 20.0 mph /  32.2 km/h 86 % 0.00 in /  0 mm 0 W/m2
19:20 54.0 °F /  12.2 °C 49.6 °F /  9.8 °C 29.67 in /  1004.6 hPa West 15.0 mph /  24.1 km/h 16.0 mph /  25.7 km/h 85 % 0.00 in /  0 mm 0 W/m2
19:25 54.1 °F /  12.3 °C 49.7 °F /  9.8 °C 29.67 in /  1004.6 hPa SW 16.0 mph /  25.7 km/h 16.0 mph /  25.7 km/h 85 % 0.00 in /  0 mm 0 W/m2
19:35 54.1 °F /  12.3 °C 49.4 °F /  9.7 °C 29.67 in /  1004.6 hPa SW 15.0 mph /  24.1 km/h 16.0 mph /  25.7 km/h 84 % 0.00 in /  0 mm 0 W/m2
19:40 54.1 °F /  12.3 °C 49.4 °F /  9.7 °C 29.67 in /  1004.6 hPa WSW 16.0 mph /  25.7 km/h 16.0 mph /  25.7 km/h 84 % 0.00 in /  0 mm 0 W/m2
19:45 54.1 °F /  12.3 °C 49.4 °F /  9.7 °C 29.66 in /  1004.3 hPa WSW 15.0 mph /  24.1 km/h 19.0 mph /  30.6 km/h 84 % 0.00 in /  0 mm 0 W/m2
19:55 54.0 °F /  12.2 °C 49.3 °F /  9.6 °C 29.66 in /  1004.3 hPa West 14.0 mph /  22.5 km/h 16.0 mph /  25.7 km/h 84 % 0.00 in /  0 mm 0 W/m2
20:00 54.1 °F /  12.3 °C 49.4 °F /  9.7 °C 29.66 in /  1004.3 hPa WSW 14.0 mph /  22.5 km/h 14.0 mph /  22.5 km/h 84 % 0.00 in /  0 mm 0 W/m2
20:05 54.1 °F /  12.3 °C 49.4 °F /  9.7 °C 29.66 in /  1004.3 hPa WSW 16.0 mph /  25.7 km/h 22.0 mph /  35.4 km/h 84 % 0.00 in /  0 mm 0 W/m2
20:10 54.1 °F /  12.3 °C 49.4 °F /  9.7 °C 29.66 in /  1004.3 hPa WSW 17.0 mph /  27.4 km/h 17.0 mph /  27.4 km/h 84 % 0.00 in /  0 mm 0 W/m2
20:20 53.9 °F /  12.2 °C 49.2 °F /  9.6 °C 29.65 in /  1003.9 hPa WSW 16.0 mph /  25.7 km/h 21.0 mph /  33.8 km/h 84 % 0.00 in /  0 mm 0 W/m2
20:25 53.8 °F /  12.1 °C 49.1 °F /  9.5 °C 29.64 in /  1003.6 hPa WSW 17.0 mph /  27.4 km/h 21.0 mph /  33.8 km/h 84 % 0.00 in /  0 mm 0 W/m2
20:30 53.7 °F /  12.1 °C 49.3 °F /  9.6 °C 29.64 in /  1003.6 hPa West 18.0 mph /  29 km/h 19.0 mph /  30.6 km/h 85 % 0.00 in /  0 mm 0 W/m2
20:35 53.7 °F /  12.1 °C 49.0 °F /  9.4 °C 29.64 in /  1003.6 hPa SW 18.0 mph /  29 km/h 19.0 mph /  30.6 km/h 84 % 0.00 in /  0 mm 0 W/m2
20:45 53.8 °F /  12.1 °C 49.1 °F /  9.5 °C 29.63 in /  1003.3 hPa SSW 20.0 mph /  32.2 km/h 22.0 mph /  35.4 km/h 84 % 0.00 in /  0 mm 0 W/m2
20:50 53.8 °F /  12.1 °C 49.1 °F /  9.5 °C 29.63 in /  1003.3 hPa West 19.0 mph /  30.6 km/h 19.0 mph /  30.6 km/h 84 % 0.00 in /  0 mm 0 W/m2
20:55 53.8 °F /  12.1 °C 49.1 °F /  9.5 °C 29.63 in /  1003.3 hPa SW 18.0 mph /  29 km/h 26.0 mph /  41.8 km/h 84 % 0.00 in /  0 mm 0 W/m2
21:05 53.7 °F /  12.1 °C 49.0 °F /  9.4 °C 29.63 in /  1003.3 hPa WSW 18.0 mph /  29 km/h 18.0 mph /  29 km/h 84 % 0.00 in /  0 mm 0 W/m2
21:10 53.6 °F /  12 °C 49.2 °F /  9.6 °C 29.63 in /  1003.3 hPa West 18.0 mph /  29 km/h 18.0 mph /  29 km/h 85 % 0.00 in /  0 mm 0 W/m2
21:15 53.4 °F /  11.9 °C 49.3 °F /  9.6 °C 29.62 in /  1002.9 hPa West 17.0 mph /  27.4 km/h 18.0 mph /  29 km/h 86 % 0.00 in /  0 mm 0 W/m2
21:20 53.3 °F /  11.8 °C 49.5 °F /  9.7 °C 29.63 in /  1003.3 hPa WSW 17.0 mph /  27.4 km/h 20.0 mph /  32.2 km/h 87 % 0.00 in /  0 mm 0 W/m2
21:30 53.1 °F /  11.7 °C 49.3 °F /  9.6 °C 29.62 in /  1002.9 hPa SW 16.0 mph /  25.7 km/h 16.0 mph /  25.7 km/h 87 % 0.00 in /  0 mm 0 W/m2
21:40 53.1 °F /  11.7 °C 49.3 °F /  9.6 °C 29.62 in /  1002.9 hPa WSW 14.0 mph /  22.5 km/h 18.0 mph /  29 km/h 87 % 0.00 in /  0 mm 0 W/m2
21:45 53.1 °F /  11.7 °C 49.6 °F /  9.8 °C 29.62 in /  1002.9 hPa WSW 14.0 mph /  22.5 km/h 18.0 mph /  29 km/h 88 % 0.00 in /  0 mm 0 W/m2
21:50 53.0 °F /  11.7 °C 49.5 °F /  9.7 °C 29.62 in /  1002.9 hPa West 13.0 mph /  20.9 km/h 13.0 mph /  20.9 km/h 88 % 0.00 in /  0 mm 0 W/m2
21:55 53.1 °F /  11.7 °C 49.6 °F /  9.8 °C 29.62 in /  1002.9 hPa WSW 12.0 mph /  19.3 km/h 16.0 mph /  25.7 km/h 88 % 0.00 in /  0 mm 0 W/m2
22:00 53.1 °F /  11.7 °C 49.6 °F /  9.8 °C 29.61 in /  1002.6 hPa WSW 12.0 mph /  19.3 km/h 16.0 mph /  25.7 km/h 88 % 0.00 in /  0 mm 0 W/m2
22:10 53.4 °F /  11.9 °C 49.6 °F /  9.8 °C 29.61 in /  1002.6 hPa SW 13.0 mph /  20.9 km/h 13.0 mph /  20.9 km/h 87 % 0.00 in /  0 mm 0 W/m2
22:20 53.4 °F /  11.9 °C 49.6 °F /  9.8 °C 29.61 in /  1002.6 hPa SW 13.0 mph /  20.9 km/h 16.0 mph /  25.7 km/h 87 % 0.00 in /  0 mm 0 W/m2
22:25 53.3 °F /  11.8 °C 49.5 °F /  9.7 °C 29.60 in /  1002.3 hPa SW 12.0 mph /  19.3 km/h 16.0 mph /  25.7 km/h 87 % 0.00 in /  0 mm 0 W/m2
22:30 53.3 °F /  11.8 °C 49.8 °F /  9.9 °C 29.59 in /  1001.9 hPa WSW 13.0 mph /  20.9 km/h 13.0 mph /  20.9 km/h 88 % 0.00 in /  0 mm 0 W/m2
22:35 53.3 °F /  11.8 °C 49.5 °F /  9.7 °C 29.59 in /  1001.9 hPa SW 12.0 mph /  19.3 km/h 15.0 mph /  24.1 km/h 87 % 0.00 in /  0 mm 0 W/m2
22:40 53.3 °F /  11.8 °C 49.5 °F /  9.7 °C 29.59 in /  1001.9 hPa West 11.0 mph /  17.7 km/h 16.0 mph /  25.7 km/h 87 % 0.00 in /  0 mm 0 W/m2
22:45 53.3 °F /  11.8 °C 49.5 °F /  9.7 °C 29.59 in /  1001.9 hPa SW 11.0 mph /  17.7 km/h 19.0 mph /  30.6 km/h 87 % 0.00 in /  0 mm 0 W/m2
22:50 53.3 °F /  11.8 °C 49.5 °F /  9.7 °C 29.58 in /  1001.6 hPa SW 12.0 mph /  19.3 km/h 12.0 mph /  19.3 km/h 87 % 0.00 in /  0 mm 0 W/m2
23:00 53.1 °F /  11.7 °C 49.6 °F /  9.8 °C 29.58 in /  1001.6 hPa WSW 12.0 mph /  19.3 km/h 19.0 mph /  30.6 km/h 88 % 0.00 in /  0 mm 0 W/m2
23:05 53.0 °F /  11.7 °C 49.5 °F /  9.7 °C 29.58 in /  1001.6 hPa West 13.0 mph /  20.9 km/h 19.0 mph /  30.6 km/h 88 % 0.00 in /  0 mm 0 W/m2
23:10 52.9 °F /  11.6 °C 49.4 °F /  9.7 °C 29.58 in /  1001.6 hPa SW 12.0 mph /  19.3 km/h 16.0 mph /  25.7 km/h 88 % 0.00 in /  0 mm 0 W/m2
23:15 52.8 °F /  11.6 °C 49.3 °F /  9.6 °C 29.57 in /  1001.2 hPa West 13.0 mph /  20.9 km/h 16.0 mph /  25.7 km/h 88 % 0.00 in /  0 mm 0 W/m2
23:20 52.7 °F /  11.5 °C 49.2 °F /  9.6 °C 29.57 in /  1001.2 hPa West 16.0 mph /  25.7 km/h 16.0 mph /  25.7 km/h 88 % 0.00 in /  0 mm 0 W/m2
23:25 52.6 °F /  11.4 °C 49.4 °F /  9.7 °C 29.57 in /  1001.2 hPa WNW 18.0 mph /  29 km/h 21.0 mph /  33.8 km/h 89 % 0.00 in /  0 mm 0 W/m2
23:30 52.5 °F /  11.4 °C 49.4 °F /  9.7 °C 29.55 in /  1000.6 hPa WSW 22.0 mph /  35.4 km/h 23.0 mph /  37 km/h 89 % 0.00 in /  0 mm 0 W/m2
23:35 52.3 °F /  11.3 °C 49.2 °F /  9.6 °C 29.57 in /  1001.2 hPa WNW 21.0 mph /  33.8 km/h 24.0 mph /  38.6 km/h 89 % 0.00 in /  0 mm 0 W/m2
23:45 52.3 °F /  11.3 °C 49.5 °F /  9.7 °C 29.55 in /  1000.6 hPa WNW 21.0 mph /  33.8 km/h 30.0 mph /  48.3 km/h 90 % 0.00 in /  0 mm 0 W/m2
23:55 52.1 °F /  11.2 °C 49.3 °F /  9.6 °C 29.56 in /  1000.9 hPa WSW 22.0 mph /  35.4 km/h 30.0 mph /  48.3 km/h 90 % 0.00 in /  0 mm 0 W/m2
Delerius-Weather
Compliments of Weather Underground - 2 mb

Data updates at regular intervals.